sensor_id;sensor_type;location;lat;lon;timestamp;temperature;humidity
21090;DHT22;10703;51.020;6.128;2023-02-12T00:01:00;6.90;99.90
21090;DHT22;10703;51.020;6.128;2023-02-12T00:03:26;7.00;99.90
21090;DHT22;10703;51.020;6.128;2023-02-12T00:05:53;6.90;99.90
21090;DHT22;10703;51.020;6.128;2023-02-12T00:08:20;6.90;99.90
21090;DHT22;10703;51.020;6.128;2023-02-12T00:10:47;6.90;99.90
21090;DHT22;10703;51.020;6.128;2023-02-12T00:13:13;6.90;99.90
21090;DHT22;10703;51.020;6.128;2023-02-12T00:15:41;7.00;99.90
21090;DHT22;10703;51.020;6.128;2023-02-12T00:18:08;6.90;99.90
21090;DHT22;10703;51.020;6.128;2023-02-12T00:20:36;7.00;99.90
21090;DHT22;10703;51.020;6.128;2023-02-12T00:23:04;6.90;99.90
21090;DHT22;10703;51.020;6.128;2023-02-12T00:25:31;7.00;99.90
21090;DHT22;10703;51.020;6.128;2023-02-12T00:27:58;6.90;99.90
21090;DHT22;10703;51.020;6.128;2023-02-12T00:30:25;6.90;99.90
21090;DHT22;10703;51.020;6.128;2023-02-12T00:32:51;6.90;99.90
21090;DHT22;10703;51.020;6.128;2023-02-12T00:35:18;6.90;99.90
21090;DHT22;10703;51.020;6.128;2023-02-12T00:37:45;6.90;99.90
21090;DHT22;10703;51.020;6.128;2023-02-12T00:40:12;6.80;99.90
21090;DHT22;10703;51.020;6.128;2023-02-12T00:42:39;6.80;99.90
21090;DHT22;10703;51.020;6.128;2023-02-12T00:45:06;6.80;99.90
21090;DHT22;10703;51.020;6.128;2023-02-12T00:47:33;6.80;99.90
21090;DHT22;10703;51.020;6.128;2023-02-12T00:50:00;6.80;99.90
21090;DHT22;10703;51.020;6.128;2023-02-12T00:52:26;6.80;99.90
21090;DHT22;10703;51.020;6.128;2023-02-12T00:54:53;6.80;99.90
21090;DHT22;10703;51.020;6.128;2023-02-12T00:57:20;6.80;99.90
21090;DHT22;10703;51.020;6.128;2023-02-12T00:59:46;6.80;99.90
21090;DHT22;10703;51.020;6.128;2023-02-12T01:02:13;6.80;99.90
21090;DHT22;10703;51.020;6.128;2023-02-12T01:04:39;6.90;99.90
21090;DHT22;10703;51.020;6.128;2023-02-12T01:07:06;6.80;99.90
21090;DHT22;10703;51.020;6.128;2023-02-12T01:09:33;6.80;99.90
21090;DHT22;10703;51.020;6.128;2023-02-12T01:11:59;6.80;99.90
21090;DHT22;10703;51.020;6.128;2023-02-12T01:14:26;6.80;99.90
21090;DHT22;10703;51.020;6.128;2023-02-12T01:16:52;6.80;99.90
21090;DHT22;10703;51.020;6.128;2023-02-12T01:19:19;6.90;99.90
21090;DHT22;10703;51.020;6.128;2023-02-12T01:21:46;6.80;99.90
21090;DHT22;10703;51.020;6.128;2023-02-12T01:24:12;6.80;99.90
21090;DHT22;10703;51.020;6.128;2023-02-12T01:26:39;6.80;99.90
21090;DHT22;10703;51.020;6.128;2023-02-12T01:29:06;6.80;99.90
21090;DHT22;10703;51.020;6.128;2023-02-12T01:31:37;6.80;99.90
21090;DHT22;10703;51.020;6.128;2023-02-12T01:34:05;6.80;99.90
21090;DHT22;10703;51.020;6.128;2023-02-12T01:36:33;6.80;99.90
21090;DHT22;10703;51.020;6.128;2023-02-12T01:38:59;6.80;99.90
21090;DHT22;10703;51.020;6.128;2023-02-12T01:41:35;6.80;99.90
21090;DHT22;10703;51.020;6.128;2023-02-12T01:44:14;6.90;99.90
21090;DHT22;10703;51.020;6.128;2023-02-12T01:46:42;6.80;99.90
21090;DHT22;10703;51.020;6.128;2023-02-12T01:49:37;6.80;99.90
21090;DHT22;10703;51.020;6.128;2023-02-12T01:54:39;6.80;99.90
21090;DHT22;10703;51.020;6.128;2023-02-12T01:57:08;6.80;99.90
21090;DHT22;10703;51.020;6.128;2023-02-12T01:59:37;6.70;99.90
21090;DHT22;10703;51.020;6.128;2023-02-12T02:02:06;6.80;99.90
21090;DHT22;10703;51.020;6.128;2023-02-12T02:04:40;6.80;99.90
21090;DHT22;10703;51.020;6.128;2023-02-12T02:07:09;6.80;99.90
21090;DHT22;10703;51.020;6.128;2023-02-12T02:09:38;6.80;99.90
21090;DHT22;10703;51.020;6.128;2023-02-12T02:12:06;6.80;99.90
21090;DHT22;10703;51.020;6.128;2023-02-12T02:14:54;6.80;99.90
21090;DHT22;10703;51.020;6.128;2023-02-12T02:23:04;7.00;99.90
21090;DHT22;10703;51.020;6.128;2023-02-12T02:25:47;6.80;99.90
21090;DHT22;10703;51.020;6.128;2023-02-12T02:28:58;6.80;99.90
21090;DHT22;10703;51.020;6.128;2023-02-12T02:32:02;6.80;99.90
21090;DHT22;10703;51.020;6.128;2023-02-12T02:34:42;6.80;99.90
21090;DHT22;10703;51.020;6.128;2023-02-12T02:37:17;6.70;99.90
21090;DHT22;10703;51.020;6.128;2023-02-12T02:40:18;6.70;99.90
21090;DHT22;10703;51.020;6.128;2023-02-12T02:42:55;6.70;99.90
21090;DHT22;10703;51.020;6.128;2023-02-12T02:45:48;6.70;99.90
21090;DHT22;10703;51.020;6.128;2023-02-12T02:48:36;6.70;99.90
21090;DHT22;10703;51.020;6.128;2023-02-12T02:51:08;6.70;99.90
21090;DHT22;10703;51.020;6.128;2023-02-12T02:53:43;6.70;99.90
21090;DHT22;10703;51.020;6.128;2023-02-12T02:56:14;6.70;99.90
21090;DHT22;10703;51.020;6.128;2023-02-12T02:58:45;6.70;99.90
21090;DHT22;10703;51.020;6.128;2023-02-12T03:01:21;6.70;99.90
21090;DHT22;10703;51.020;6.128;2023-02-12T03:04:11;6.70;99.90
21090;DHT22;10703;51.020;6.128;2023-02-12T03:06:40;6.70;99.90
21090;DHT22;10703;51.020;6.128;2023-02-12T03:09:32;6.70;99.90
21090;DHT22;10703;51.020;6.128;2023-02-12T03:12:10;6.70;99.90
21090;DHT22;10703;51.020;6.128;2023-02-12T03:14:46;6.70;99.90
21090;DHT22;10703;51.020;6.128;2023-02-12T03:17:25;6.70;99.90
21090;DHT22;10703;51.020;6.128;2023-02-12T03:20:00;6.70;99.90
21090;DHT22;10703;51.020;6.128;2023-02-12T03:22:30;6.70;99.90
21090;DHT22;10703;51.020;6.128;2023-02-12T03:25:13;6.60;99.90
21090;DHT22;10703;51.020;6.128;2023-02-12T03:28:09;6.60;99.90
21090;DHT22;10703;51.020;6.128;2023-02-12T03:33:40;6.60;99.90
21090;DHT22;10703;51.020;6.128;2023-02-12T03:38:52;6.60;99.90
21090;DHT22;10703;51.020;6.128;2023-02-12T03:44:05;6.70;99.90
21090;DHT22;10703;51.020;6.128;2023-02-12T03:46:49;6.70;99.90
21090;DHT22;10703;51.020;6.128;2023-02-12T03:49:23;6.70;99.90
21090;DHT22;10703;51.020;6.128;2023-02-12T03:51:52;6.70;99.90
21090;DHT22;10703;51.020;6.128;2023-02-12T03:54:20;6.80;99.90
21090;DHT22;10703;51.020;6.128;2023-02-12T03:56:58;6.80;99.90
21090;DHT22;10703;51.020;6.128;2023-02-12T03:59:27;6.80;99.90
21090;DHT22;10703;51.020;6.128;2023-02-12T04:01:57;6.70;99.90
21090;DHT22;10703;51.020;6.128;2023-02-12T04:04:25;6.70;99.90
21090;DHT22;10703;51.020;6.128;2023-02-12T04:06:53;6.70;99.90
21090;DHT22;10703;51.020;6.128;2023-02-12T04:09:21;6.70;99.90
21090;DHT22;10703;51.020;6.128;2023-02-12T04:20:26;6.80;99.90
21090;DHT22;10703;51.020;6.128;2023-02-12T04:31:55;6.60;99.90
21090;DHT22;10703;51.020;6.128;2023-02-12T04:37:23;6.60;99.90
21090;DHT22;10703;51.020;6.128;2023-02-12T04:39:52;6.60;99.90
21090;DHT22;10703;51.020;6.128;2023-02-12T04:42:19;6.60;99.90
21090;DHT22;10703;51.020;6.128;2023-02-12T04:44:46;6.60;99.90
21090;DHT22;10703;51.020;6.128;2023-02-12T04:47:14;6.60;99.90
21090;DHT22;10703;51.020;6.128;2023-02-12T04:49:41;6.60;99.90
21090;DHT22;10703;51.020;6.128;2023-02-12T04:52:08;6.60;99.90
21090;DHT22;10703;51.020;6.128;2023-02-12T04:54:35;6.60;99.90
21090;DHT22;10703;51.020;6.128;2023-02-12T04:57:02;6.60;99.90
21090;DHT22;10703;51.020;6.128;2023-02-12T04:59:29;6.60;99.90
21090;DHT22;10703;51.020;6.128;2023-02-12T05:01:55;6.60;99.90
21090;DHT22;10703;51.020;6.128;2023-02-12T05:04:22;6.60;99.90
21090;DHT22;10703;51.020;6.128;2023-02-12T05:06:48;6.60;99.90
21090;DHT22;10703;51.020;6.128;2023-02-12T05:09:17;6.60;99.90
21090;DHT22;10703;51.020;6.128;2023-02-12T05:11:44;6.60;99.90
21090;DHT22;10703;51.020;6.128;2023-02-12T05:14:11;6.60;99.90
21090;DHT22;10703;51.020;6.128;2023-02-12T05:16:38;6.60;99.90
21090;DHT22;10703;51.020;6.128;2023-02-12T05:19:04;6.50;99.90
21090;DHT22;10703;51.020;6.128;2023-02-12T05:21:31;6.50;99.90
21090;DHT22;10703;51.020;6.128;2023-02-12T05:24:00;6.50;99.90
21090;DHT22;10703;51.020;6.128;2023-02-12T05:26:27;6.40;99.90
21090;DHT22;10703;51.020;6.128;2023-02-12T05:28:53;6.40;99.90
21090;DHT22;10703;51.020;6.128;2023-02-12T05:31:20;6.50;99.90
21090;DHT22;10703;51.020;6.128;2023-02-12T05:33:48;6.40;99.90
21090;DHT22;10703;51.020;6.128;2023-02-12T05:36:18;6.40;99.90
21090;DHT22;10703;51.020;6.128;2023-02-12T05:38:45;6.50;99.90
21090;DHT22;10703;51.020;6.128;2023-02-12T05:41:15;6.50;99.90
21090;DHT22;10703;51.020;6.128;2023-02-12T05:43:42;6.50;99.90
21090;DHT22;10703;51.020;6.128;2023-02-12T05:46:09;6.50;99.90
21090;DHT22;10703;51.020;6.128;2023-02-12T05:48:37;6.60;99.90
21090;DHT22;10703;51.020;6.128;2023-02-12T05:51:19;6.60;99.90
21090;DHT22;10703;51.020;6.128;2023-02-12T05:53:49;6.70;99.90
21090;DHT22;10703;51.020;6.128;2023-02-12T05:58:46;6.60;99.90
21090;DHT22;10703;51.020;6.128;2023-02-12T06:01:17;6.60;99.90
21090;DHT22;10703;51.020;6.128;2023-02-12T06:03:44;6.60;99.90
21090;DHT22;10703;51.020;6.128;2023-02-12T06:06:11;6.70;99.90
21090;DHT22;10703;51.020;6.128;2023-02-12T06:08:38;6.70;99.90
21090;DHT22;10703;51.020;6.128;2023-02-12T06:11:07;6.70;99.90
21090;DHT22;10703;51.020;6.128;2023-02-12T06:13:34;6.60;99.90
21090;DHT22;10703;51.020;6.128;2023-02-12T06:16:01;6.60;99.90
21090;DHT22;10703;51.020;6.128;2023-02-12T06:18:28;6.50;99.90
21090;DHT22;10703;51.020;6.128;2023-02-12T06:20:55;6.50;99.90
21090;DHT22;10703;51.020;6.128;2023-02-12T06:23:23;6.60;99.90
21090;DHT22;10703;51.020;6.128;2023-02-12T06:25:54;6.60;99.90
21090;DHT22;10703;51.020;6.128;2023-02-12T06:28:21;6.50;99.90
21090;DHT22;10703;51.020;6.128;2023-02-12T06:30:48;6.50;99.90
21090;DHT22;10703;51.020;6.128;2023-02-12T06:33:15;6.50;99.90
21090;DHT22;10703;51.020;6.128;2023-02-12T06:35:42;6.50;99.90
21090;DHT22;10703;51.020;6.128;2023-02-12T06:38:08;6.40;99.90
21090;DHT22;10703;51.020;6.128;2023-02-12T06:40:35;6.40;99.90
21090;DHT22;10703;51.020;6.128;2023-02-12T06:43:01;6.40;99.90
21090;DHT22;10703;51.020;6.128;2023-02-12T06:45:28;6.40;99.90
21090;DHT22;10703;51.020;6.128;2023-02-12T06:47:55;6.40;99.90
21090;DHT22;10703;51.020;6.128;2023-02-12T06:50:21;6.40;99.90
21090;DHT22;10703;51.020;6.128;2023-02-12T06:52:48;6.40;99.90
21090;DHT22;10703;51.020;6.128;2023-02-12T06:55:15;6.40;99.90
21090;DHT22;10703;51.020;6.128;2023-02-12T06:57:42;6.40;99.90
21090;DHT22;10703;51.020;6.128;2023-02-12T07:00:09;6.30;99.90
21090;DHT22;10703;51.020;6.128;2023-02-12T07:02:36;6.40;99.90
21090;DHT22;10703;51.020;6.128;2023-02-12T07:05:04;6.30;99.90
21090;DHT22;10703;51.020;6.128;2023-02-12T07:07:31;6.30;99.90
21090;DHT22;10703;51.020;6.128;2023-02-12T07:09:58;6.30;99.90
21090;DHT22;10703;51.020;6.128;2023-02-12T07:12:25;6.30;99.90
21090;DHT22;10703;51.020;6.128;2023-02-12T07:14:52;6.30;99.90
21090;DHT22;10703;51.020;6.128;2023-02-12T07:17:18;6.40;99.90
21090;DHT22;10703;51.020;6.128;2023-02-12T07:19:45;6.40;99.90
21090;DHT22;10703;51.020;6.128;2023-02-12T07:22:11;6.40;99.90
21090;DHT22;10703;51.020;6.128;2023-02-12T07:24:38;6.40;99.90
21090;DHT22;10703;51.020;6.128;2023-02-12T07:27:05;6.40;99.90
21090;DHT22;10703;51.020;6.128;2023-02-12T07:29:31;6.40;99.90
21090;DHT22;10703;51.020;6.128;2023-02-12T07:31:58;6.40;99.90
21090;DHT22;10703;51.020;6.128;2023-02-12T07:34:24;6.50;99.90
21090;DHT22;10703;51.020;6.128;2023-02-12T07:36:51;6.50;99.90
21090;DHT22;10703;51.020;6.128;2023-02-12T07:39:18;6.50;99.90
21090;DHT22;10703;51.020;6.128;2023-02-12T07:41:44;6.70;99.90
21090;DHT22;10703;51.020;6.128;2023-02-12T07:44:11;6.50;99.90
21090;DHT22;10703;51.020;6.128;2023-02-12T07:46:44;6.60;99.90
21090;DHT22;10703;51.020;6.128;2023-02-12T07:49:16;6.70;99.90
21090;DHT22;10703;51.020;6.128;2023-02-12T07:51:44;6.70;99.90
21090;DHT22;10703;51.020;6.128;2023-02-12T07:54:11;6.80;99.90
21090;DHT22;10703;51.020;6.128;2023-02-12T07:56:39;6.90;99.90
21090;DHT22;10703;51.020;6.128;2023-02-12T07:59:12;6.90;99.90
21090;DHT22;10703;51.020;6.128;2023-02-12T08:01:49;6.90;99.90
21090;DHT22;10703;51.020;6.128;2023-02-12T08:04:20;7.00;99.90
21090;DHT22;10703;51.020;6.128;2023-02-12T08:06:49;7.10;99.90
21090;DHT22;10703;51.020;6.128;2023-02-12T08:09:23;7.10;99.90
21090;DHT22;10703;51.020;6.128;2023-02-12T08:11:49;7.20;99.90
21090;DHT22;10703;51.020;6.128;2023-02-12T08:14:18;7.20;99.90
21090;DHT22;10703;51.020;6.128;2023-02-12T08:16:46;7.20;99.90
21090;DHT22;10703;51.020;6.128;2023-02-12T08:19:14;7.10;99.90
21090;DHT22;10703;51.020;6.128;2023-02-12T08:21:50;7.10;99.90
21090;DHT22;10703;51.020;6.128;2023-02-12T08:24:17;7.10;99.90
21090;DHT22;10703;51.020;6.128;2023-02-12T08:26:44;7.10;99.90
21090;DHT22;10703;51.020;6.128;2023-02-12T08:29:13;7.10;99.90
21090;DHT22;10703;51.020;6.128;2023-02-12T08:31:45;7.20;99.90
21090;DHT22;10703;51.020;6.128;2023-02-12T08:34:19;7.30;99.90
21090;DHT22;10703;51.020;6.128;2023-02-12T08:36:47;7.40;99.90
21090;DHT22;10703;51.020;6.128;2023-02-12T08:39:15;7.40;99.90
21090;DHT22;10703;51.020;6.128;2023-02-12T08:41:42;7.40;99.90
21090;DHT22;10703;51.020;6.128;2023-02-12T08:44:10;7.50;99.90
21090;DHT22;10703;51.020;6.128;2023-02-12T08:46:39;7.50;99.90
21090;DHT22;10703;51.020;6.128;2023-02-12T08:49:10;7.70;99.90
21090;DHT22;10703;51.020;6.128;2023-02-12T08:51:41;7.90;99.90
21090;DHT22;10703;51.020;6.128;2023-02-12T08:54:11;7.90;99.90
21090;DHT22;10703;51.020;6.128;2023-02-12T08:56:39;8.00;99.90
21090;DHT22;10703;51.020;6.128;2023-02-12T08:59:07;8.00;99.90
21090;DHT22;10703;51.020;6.128;2023-02-12T09:01:36;8.20;99.90
21090;DHT22;10703;51.020;6.128;2023-02-12T09:04:14;8.20;99.90
21090;DHT22;10703;51.020;6.128;2023-02-12T09:06:43;8.30;99.90
21090;DHT22;10703;51.020;6.128;2023-02-12T09:09:10;8.30;99.90
21090;DHT22;10703;51.020;6.128;2023-02-12T09:11:37;8.40;99.90
21090;DHT22;10703;51.020;6.128;2023-02-12T09:14:06;8.40;99.90
21090;DHT22;10703;51.020;6.128;2023-02-12T09:16:34;8.50;99.90
21090;DHT22;10703;51.020;6.128;2023-02-12T09:19:01;8.60;99.90
21090;DHT22;10703;51.020;6.128;2023-02-12T09:21:28;8.60;99.90
21090;DHT22;10703;51.020;6.128;2023-02-12T09:23:55;8.70;99.90
21090;DHT22;10703;51.020;6.128;2023-02-12T09:26:23;8.70;99.90
21090;DHT22;10703;51.020;6.128;2023-02-12T09:28:53;8.70;99.90
21090;DHT22;10703;51.020;6.128;2023-02-12T09:31:28;8.60;99.90
21090;DHT22;10703;51.020;6.128;2023-02-12T09:34:04;8.70;99.90
21090;DHT22;10703;51.020;6.128;2023-02-12T09:36:32;8.80;99.90
21090;DHT22;10703;51.020;6.128;2023-02-12T09:38:59;8.90;99.90
21090;DHT22;10703;51.020;6.128;2023-02-12T09:52:19;9.10;99.90
21090;DHT22;10703;51.020;6.128;2023-02-12T09:54:48;9.10;99.90
21090;DHT22;10703;51.020;6.128;2023-02-12T09:57:23;9.20;99.90
21090;DHT22;10703;51.020;6.128;2023-02-12T10:00:06;9.30;99.90
21090;DHT22;10703;51.020;6.128;2023-02-12T10:02:39;9.40;99.90
21090;DHT22;10703;51.020;6.128;2023-02-12T10:05:18;9.60;99.90
21090;DHT22;10703;51.020;6.128;2023-02-12T10:08:04;9.70;99.90
21090;DHT22;10703;51.020;6.128;2023-02-12T10:10:59;9.70;99.90
21090;DHT22;10703;51.020;6.128;2023-02-12T10:13:53;9.80;99.90
21090;DHT22;10703;51.020;6.128;2023-02-12T10:19:35;10.10;99.90
21090;DHT22;10703;51.020;6.128;2023-02-12T10:25:01;10.10;99.90
21090;DHT22;10703;51.020;6.128;2023-02-12T10:27:47;10.00;99.90
21090;DHT22;10703;51.020;6.128;2023-02-12T10:32:50;10.20;99.90
21090;DHT22;10703;51.020;6.128;2023-02-12T10:35:20;10.30;99.90
21090;DHT22;10703;51.020;6.128;2023-02-12T10:37:59;10.40;99.90
21090;DHT22;10703;51.020;6.128;2023-02-12T10:40:31;10.50;99.90
21090;DHT22;10703;51.020;6.128;2023-02-12T10:43:00;10.60;99.90
21090;DHT22;10703;51.020;6.128;2023-02-12T10:45:34;10.60;99.90
21090;DHT22;10703;51.020;6.128;2023-02-12T10:53:43;10.60;99.90
21090;DHT22;10703;51.020;6.128;2023-02-12T10:56:19;10.60;99.90
21090;DHT22;10703;51.020;6.128;2023-02-12T10:58:50;10.60;99.90
21090;DHT22;10703;51.020;6.128;2023-02-12T11:01:37;10.60;99.90
21090;DHT22;10703;51.020;6.128;2023-02-12T11:04:31;10.70;99.90
21090;DHT22;10703;51.020;6.128;2023-02-12T11:07:04;10.80;99.90
21090;DHT22;10703;51.020;6.128;2023-02-12T11:09:48;10.80;99.90
21090;DHT22;10703;51.020;6.128;2023-02-12T11:14:57;10.80;99.90
21090;DHT22;10703;51.020;6.128;2023-02-12T11:17:41;10.80;99.90
21090;DHT22;10703;51.020;6.128;2023-02-12T11:20:23;10.90;99.90
21090;DHT22;10703;51.020;6.128;2023-02-12T11:25:30;10.90;99.90
21090;DHT22;10703;51.020;6.128;2023-02-12T11:28:17;10.80;99.90
21090;DHT22;10703;51.020;6.128;2023-02-12T11:30:56;10.70;99.90
21090;DHT22;10703;51.020;6.128;2023-02-12T11:33:33;10.40;99.90
21090;DHT22;10703;51.020;6.128;2023-02-12T11:36:03;10.60;99.90
21090;DHT22;10703;51.020;6.128;2023-02-12T11:38:35;10.80;99.90
21090;DHT22;10703;51.020;6.128;2023-02-12T11:41:20;10.70;99.90
21090;DHT22;10703;51.020;6.128;2023-02-12T11:43:48;10.90;99.90
21090;DHT22;10703;51.020;6.128;2023-02-12T11:46:23;11.10;99.90
21090;DHT22;10703;51.020;6.128;2023-02-12T11:48:51;11.10;99.90
21090;DHT22;10703;51.020;6.128;2023-02-12T11:51:25;11.10;99.90
21090;DHT22;10703;51.020;6.128;2023-02-12T11:53:59;11.00;99.90
21090;DHT22;10703;51.020;6.128;2023-02-12T11:56:44;10.90;99.90
21090;DHT22;10703;51.020;6.128;2023-02-12T11:59:25;10.90;99.90
21090;DHT22;10703;51.020;6.128;2023-02-12T12:01:55;11.20;99.90
21090;DHT22;10703;51.020;6.128;2023-02-12T12:04:24;11.30;99.90
21090;DHT22;10703;51.020;6.128;2023-02-12T12:07:10;11.30;99.90
21090;DHT22;10703;51.020;6.128;2023-02-12T12:12:46;11.50;99.90
21090;DHT22;10703;51.020;6.128;2023-02-12T12:15:27;11.80;99.90
21090;DHT22;10703;51.020;6.128;2023-02-12T12:18:23;11.80;99.90
21090;DHT22;10703;51.020;6.128;2023-02-12T12:21:15;11.60;99.90
21090;DHT22;10703;51.020;6.128;2023-02-12T12:23:48;11.40;99.90
21090;DHT22;10703;51.020;6.128;2023-02-12T12:26:28;11.50;99.90
21090;DHT22;10703;51.020;6.128;2023-02-12T12:29:18;11.50;99.90
21090;DHT22;10703;51.020;6.128;2023-02-12T12:31:53;11.70;99.90
21090;DHT22;10703;51.020;6.128;2023-02-12T12:34:23;11.70;99.90
21090;DHT22;10703;51.020;6.128;2023-02-12T12:37:30;11.80;99.90
21090;DHT22;10703;51.020;6.128;2023-02-12T12:40:22;11.80;99.90
21090;DHT22;10703;51.020;6.128;2023-02-12T12:43:13;11.90;99.90
21090;DHT22;10703;51.020;6.128;2023-02-12T12:48:54;12.00;99.90
21090;DHT22;10703;51.020;6.128;2023-02-12T12:54:43;12.10;99.90
21090;DHT22;10703;51.020;6.128;2023-02-12T13:00:09;12.30;99.90
21090;DHT22;10703;51.020;6.128;2023-02-12T13:05:53;12.30;99.90
21090;DHT22;10703;51.020;6.128;2023-02-12T13:08:37;12.60;99.90
21090;DHT22;10703;51.020;6.128;2023-02-12T13:17:04;12.20;99.90
21090;DHT22;10703;51.020;6.128;2023-02-12T13:19:37;12.10;99.90
21090;DHT22;10703;51.020;6.128;2023-02-12T13:22:12;12.30;99.90
21090;DHT22;10703;51.020;6.128;2023-02-12T13:24:58;12.30;99.90
21090;DHT22;10703;51.020;6.128;2023-02-12T13:27:31;12.50;99.90
21090;DHT22;10703;51.020;6.128;2023-02-12T13:30:06;12.30;99.90
21090;DHT22;10703;51.020;6.128;2023-02-12T13:35:17;12.20;99.90
21090;DHT22;10703;51.020;6.128;2023-02-12T13:37:47;12.50;99.90
21090;DHT22;10703;51.020;6.128;2023-02-12T13:40:17;12.40;99.90
21090;DHT22;10703;51.020;6.128;2023-02-12T13:48:21;12.20;99.90
21090;DHT22;10703;51.020;6.128;2023-02-12T13:56:41;11.80;99.90
21090;DHT22;10703;51.020;6.128;2023-02-12T14:02:45;11.80;99.90
21090;DHT22;10703;51.020;6.128;2023-02-12T14:04:53;11.80;99.90
21090;DHT22;10703;51.020;6.128;2023-02-12T14:07:21;11.60;99.90
21090;DHT22;10703;51.020;6.128;2023-02-12T14:15:03;10.90;99.90
21090;DHT22;10703;51.020;6.128;2023-02-12T14:20:28;11.10;99.90
21090;DHT22;10703;51.020;6.128;2023-02-12T14:23:18;11.20;99.90
21090;DHT22;10703;51.020;6.128;2023-02-12T14:39:03;11.20;99.90
21090;DHT22;10703;51.020;6.128;2023-02-12T14:41:36;11.10;99.90
21090;DHT22;10703;51.020;6.128;2023-02-12T14:54:48;11.20;99.90
21090;DHT22;10703;51.020;6.128;2023-02-12T14:57:29;11.10;99.90
21090;DHT22;10703;51.020;6.128;2023-02-12T15:02:28;11.00;99.90
21090;DHT22;10703;51.020;6.128;2023-02-12T15:05:00;11.00;99.90
21090;DHT22;10703;51.020;6.128;2023-02-12T15:07:36;11.00;99.90
21090;DHT22;10703;51.020;6.128;2023-02-12T15:10:12;11.00;99.90
21090;DHT22;10703;51.020;6.128;2023-02-12T15:12:44;11.00;99.90
21090;DHT22;10703;51.020;6.128;2023-02-12T15:15:22;10.90;99.90
21090;DHT22;10703;51.020;6.128;2023-02-12T15:18:21;10.90;99.90
21090;DHT22;10703;51.020;6.128;2023-02-12T15:20:55;10.80;99.90
21090;DHT22;10703;51.020;6.128;2023-02-12T15:23:39;10.80;99.90
21090;DHT22;10703;51.020;6.128;2023-02-12T15:26:18;10.70;99.90
21090;DHT22;10703;51.020;6.128;2023-02-12T15:28:47;10.60;99.90
21090;DHT22;10703;51.020;6.128;2023-02-12T15:31:23;10.60;99.90
21090;DHT22;10703;51.020;6.128;2023-02-12T15:33:52;10.50;99.90
21090;DHT22;10703;51.020;6.128;2023-02-12T15:36:23;10.50;99.90
21090;DHT22;10703;51.020;6.128;2023-02-12T15:38:56;10.50;99.90
21090;DHT22;10703;51.020;6.128;2023-02-12T15:41:43;10.50;99.90
21090;DHT22;10703;51.020;6.128;2023-02-12T15:49:35;10.40;99.90
21090;DHT22;10703;51.020;6.128;2023-02-12T15:52:10;10.30;99.90
21090;DHT22;10703;51.020;6.128;2023-02-12T15:54:43;10.20;99.90
21090;DHT22;10703;51.020;6.128;2023-02-12T15:57:13;10.20;99.90
21090;DHT22;10703;51.020;6.128;2023-02-12T15:59:49;10.10;99.90
21090;DHT22;10703;51.020;6.128;2023-02-12T16:02:21;10.10;99.90
21090;DHT22;10703;51.020;6.128;2023-02-12T16:04:50;10.10;99.90
21090;DHT22;10703;51.020;6.128;2023-02-12T16:07:17;10.10;99.90
21090;DHT22;10703;51.020;6.128;2023-02-12T16:09:44;10.00;99.90
21090;DHT22;10703;51.020;6.128;2023-02-12T16:12:14;10.00;99.90
21090;DHT22;10703;51.020;6.128;2023-02-12T16:14:52;10.00;99.90
21090;DHT22;10703;51.020;6.128;2023-02-12T16:17:30;9.90;99.90
21090;DHT22;10703;51.020;6.128;2023-02-12T16:20:17;9.80;99.90
21090;DHT22;10703;51.020;6.128;2023-02-12T16:22:48;9.80;99.90
21090;DHT22;10703;51.020;6.128;2023-02-12T16:25:18;9.80;99.90
21090;DHT22;10703;51.020;6.128;2023-02-12T16:33:05;9.60;99.90
21090;DHT22;10703;51.020;6.128;2023-02-12T16:36:44;9.60;99.90
21090;DHT22;10703;51.020;6.128;2023-02-12T16:39:03;9.50;99.90
21090;DHT22;10703;51.020;6.128;2023-02-12T16:41:31;9.50;99.90
21090;DHT22;10703;51.020;6.128;2023-02-12T16:46:43;9.40;99.90
21090;DHT22;10703;51.020;6.128;2023-02-12T16:49:21;9.40;99.90
21090;DHT22;10703;51.020;6.128;2023-02-12T16:51:49;9.30;99.90
21090;DHT22;10703;51.020;6.128;2023-02-12T16:54:32;9.30;99.90
21090;DHT22;10703;51.020;6.128;2023-02-12T16:57:00;9.30;99.90
21090;DHT22;10703;51.020;6.128;2023-02-12T16:59:27;9.20;99.90
21090;DHT22;10703;51.020;6.128;2023-02-12T17:02:16;9.20;99.90
21090;DHT22;10703;51.020;6.128;2023-02-12T17:04:43;9.10;99.90
21090;DHT22;10703;51.020;6.128;2023-02-12T17:07:30;9.10;99.90
21090;DHT22;10703;51.020;6.128;2023-02-12T17:09:56;9.00;99.90
21090;DHT22;10703;51.020;6.128;2023-02-12T17:12:23;9.00;99.90
21090;DHT22;10703;51.020;6.128;2023-02-12T17:14:50;8.90;99.90
21090;DHT22;10703;51.020;6.128;2023-02-12T17:17:17;8.90;99.90
21090;DHT22;10703;51.020;6.128;2023-02-12T17:19:43;8.90;99.90
21090;DHT22;10703;51.020;6.128;2023-02-12T17:22:20;8.90;99.90
21090;DHT22;10703;51.020;6.128;2023-02-12T17:24:47;8.90;99.90
21090;DHT22;10703;51.020;6.128;2023-02-12T17:27:17;8.80;99.90
21090;DHT22;10703;51.020;6.128;2023-02-12T17:29:44;8.80;99.90
21090;DHT22;10703;51.020;6.128;2023-02-12T17:32:11;8.80;99.90
21090;DHT22;10703;51.020;6.128;2023-02-12T17:34:38;8.80;99.90
21090;DHT22;10703;51.020;6.128;2023-02-12T17:37:15;8.80;99.90
21090;DHT22;10703;51.020;6.128;2023-02-12T17:39:41;8.70;99.90
21090;DHT22;10703;51.020;6.128;2023-02-12T17:42:08;8.70;99.90
21090;DHT22;10703;51.020;6.128;2023-02-12T17:44:35;8.70;99.90
21090;DHT22;10703;51.020;6.128;2023-02-12T17:47:01;8.70;99.90
21090;DHT22;10703;51.020;6.128;2023-02-12T17:49:29;8.60;99.90
21090;DHT22;10703;51.020;6.128;2023-02-12T17:51:56;8.60;99.90
21090;DHT22;10703;51.020;6.128;2023-02-12T17:54:23;8.60;99.90
21090;DHT22;10703;51.020;6.128;2023-02-12T17:56:49;8.60;99.90
21090;DHT22;10703;51.020;6.128;2023-02-12T17:59:16;8.50;99.90
21090;DHT22;10703;51.020;6.128;2023-02-12T18:01:43;8.50;99.90
21090;DHT22;10703;51.020;6.128;2023-02-12T18:04:11;8.40;99.90
21090;DHT22;10703;51.020;6.128;2023-02-12T18:06:37;8.40;99.90
21090;DHT22;10703;51.020;6.128;2023-02-12T18:09:04;8.30;99.90
21090;DHT22;10703;51.020;6.128;2023-02-12T18:11:31;8.30;99.90
21090;DHT22;10703;51.020;6.128;2023-02-12T18:13:58;8.30;99.90
21090;DHT22;10703;51.020;6.128;2023-02-12T18:16:30;8.20;99.90
21090;DHT22;10703;51.020;6.128;2023-02-12T18:18:58;8.10;99.90
21090;DHT22;10703;51.020;6.128;2023-02-12T18:21:25;8.10;99.90
21090;DHT22;10703;51.020;6.128;2023-02-12T18:23:52;8.00;99.90
21090;DHT22;10703;51.020;6.128;2023-02-12T18:26:20;8.00;99.90
21090;DHT22;10703;51.020;6.128;2023-02-12T18:28:47;7.90;99.90
21090;DHT22;10703;51.020;6.128;2023-02-12T18:31:14;7.90;99.90
21090;DHT22;10703;51.020;6.128;2023-02-12T18:33:41;7.90;99.90
21090;DHT22;10703;51.020;6.128;2023-02-12T18:36:11;7.80;99.90
21090;DHT22;10703;51.020;6.128;2023-02-12T18:38:40;7.70;99.90
21090;DHT22;10703;51.020;6.128;2023-02-12T18:41:09;7.70;99.90
21090;DHT22;10703;51.020;6.128;2023-02-12T18:43:36;7.60;99.90
21090;DHT22;10703;51.020;6.128;2023-02-12T18:46:18;7.50;99.90
21090;DHT22;10703;51.020;6.128;2023-02-12T18:48:45;7.40;99.90